Time;durP1;ratioP1;P1;durP2;ratioP2;P2;SDS_P1;SDS_P2;PMS_P1;PMS_P2;Temp;Humidity;BMP_temperature;BMP_pressure;BME280_temperature;BME280_humidity;BME280_pressure;Samples;Min_cycle;Max_cycle;Signal;HPM_P1;HPM_P2
2022/02/11 00:00:40;;;;;;;;;84.25;66.50;;;;;-1.06;100.00;101499.34;3225252;38;4456808;-64
2022/02/11 00:06:03;;;;;;;;;85.75;64.25;;;;;-1.01;100.00;101491.06;3225701;38;4461838;-63
2022/02/11 00:08:32;;;;;;;;;76.75;61.00;;;;;-0.91;100.00;101488.75;3225244;38;3683816;-62
2022/02/11 00:11:01;;;;;;;;;82.00;63.00;;;;;-0.90;100.00;101495.78;3225678;38;3703817;-63
2022/02/11 00:13:30;;;;;;;;;83.75;64.25;;;;;-0.90;100.00;101493.97;3226673;38;4442006;-63
2022/02/11 00:16:00;;;;;;;;;87.75;67.50;;;;;-0.88;100.00;101508.03;3226444;38;4455788;-63
2022/02/11 00:18:28;;;;;;;;;86.25;66.50;;;;;-0.89;100.00;101508.13;3225561;38;3686792;-63
2022/02/11 00:21:00;;;;;;;;;84.25;63.50;;;;;-0.90;100.00;101501.09;3226595;38;4463886;-63
2022/02/11 00:23:27;;;;;;;;;82.25;58.25;;;;;-0.94;100.00;101502.22;3226397;37;4473280;-62
2022/02/11 00:26:01;;;;;;;;;79.25;62.00;;;;;-0.88;100.00;101486.78;3225496;38;3677781;-64
2022/02/11 00:29:35;;;;;;;;;83.25;62.25;;;;;-0.79;100.00;101486.25;3225652;37;3694111;-63
2022/02/11 00:31:57;;;;;;;;;86.50;66.00;;;;;-0.78;100.00;101493.28;3225397;38;3682775;-64
2022/02/11 00:34:35;;;;;;;;;80.00;64.25;;;;;-0.75;100.00;101493.12;3225573;37;3702770;-63
2022/02/11 00:37:11;;;;;;;;;90.75;74.75;;;;;-0.72;100.00;101487.63;3225656;38;4495112;-65
2022/02/11 00:40:10;;;;;;;;;90.25;71.75;;;;;-0.70;100.00;101474.25;3226310;38;4475766;-63
2022/02/11 01:02:49;;;;;;;;;79.50;63.00;;;;;-0.98;100.00;101487.37;3224853;37;3686768;-61
2022/02/11 01:05:18;;;;;;;;;83.75;63.50;;;;;-0.91;100.00;101478.13;3225411;37;3713835;-62
2022/02/11 01:07:47;;;;;;;;;84.00;62.50;;;;;-0.80;100.00;101470.41;3226184;38;4459726;-61
2022/02/11 01:10:17;;;;;;;;;78.50;60.75;;;;;-0.79;100.00;101472.97;3226979;37;3682723;-63
2022/02/11 01:12:45;;;;;;;;;80.00;62.75;;;;;-0.92;100.00;101476.41;3225763;37;3680721;-62
2022/02/11 01:15:14;;;;;;;;;90.50;70.00;;;;;-0.96;100.00;101482.84;3225657;37;4479733;-61
2022/02/11 01:17:52;;;;;;;;;85.25;62.00;;;;;-1.02;100.00;101476.94;3226549;37;4457722;-63
2022/02/11 01:20:44;;;;;;;;;77.00;61.00;;;;;-0.92;100.00;101468.44;3225648;37;3676726;-63
2022/02/11 01:32:01;;;;;;;;;82.00;62.25;;;;;-0.98;100.00;101458.16;3226848;37;3689845;-63
2022/02/11 01:34:55;;;;;;;;;78.25;57.00;;;;;-0.91;100.00;101463.03;3225692;37;4454717;-63
2022/02/11 01:41:02;;;;;;;;;73.25;58.75;;;;;-1.03;100.00;101472.56;3227818;38;3681692;-63
2022/02/11 01:49:27;;;;;;;;;81.25;62.75;;;;;-0.98;100.00;101459.03;3225808;38;3697107;-64
2022/02/11 01:52:13;;;;;;;;;73.00;57.50;;;;;-1.02;100.00;101454.81;3225752;38;3688778;-63
2022/02/11 01:58:24;;;;;;;;;76.25;59.50;;;;;-1.02;100.00;101457.47;3226813;38;3675667;-63
2022/02/11 02:01:09;;;;;;;;;74.50;60.38;;;;;-1.01;100.00;101457.41;3245325;37;3680694;-60
2022/02/11 02:04:16;;;;;;;;;77.50;59.75;;;;;-1.00;100.00;101442.31;3225924;38;3698133;-62
2022/02/11 02:15:39;;;;;;;;;78.75;62.50;;;;;-0.92;100.00;101452.50;3227050;38;3684664;-62
2022/02/11 02:21:50;;;;;;;;;83.25;64.25;;;;;-0.95;100.00;101452.69;3225954;38;3700641;-62
2022/02/11 02:31:38;;;;;;;;;82.50;61.50;;;;;-1.02;100.00;101447.72;3225089;38;4476635;-64
2022/02/11 02:33:44;;;;;;;;;80.25;61.00;;;;;-1.04;100.00;101457.56;3224128;38;4468912;-64
2022/02/11 02:58:57;;;;;;;;;80.25;62.50;;;;;-1.36;100.00;101442.63;3222912;38;3700093;-62
2022/02/11 03:35:29;;;;;;;;;75.00;59.00;;;;;-1.31;100.00;101429.09;3223397;37;3686535;-62
2022/02/11 03:52:26;;;;;;;;;86.00;68.00;;;;;-1.57;100.00;101423.44;3223273;38;3684502;-62
2022/02/11 04:56:37;;;;;;;;;88.50;69.25;;;;;-1.46;100.00;101430.78;3225542;37;4447864;-65
2022/02/11 05:01:54;;;;;;;;;84.00;64.25;;;;;-1.38;100.00;101428.56;3223835;38;4455458;-63
2022/02/11 05:04:22;;;;;;;;;90.75;72.00;;;;;-1.41;100.00;101424.28;3223807;37;4477423;-63
2022/02/11 05:06:50;;;;;;;;;90.00;70.00;;;;;-1.35;100.00;101421.28;3224178;37;4452399;-62
2022/02/11 05:09:18;;;;;;;;;93.00;70.25;;;;;-1.27;100.00;101415.53;3223352;38;4477410;-62
2022/02/11 05:11:48;;;;;;;;;99.25;89.00;;;;;-1.27;100.00;101420.00;3224907;38;4493665;-62
2022/02/11 05:14:16;;;;;;;;;99.75;86.00;;;;;-1.25;100.00;101424.28;3224146;37;4501405;-62
2022/02/11 05:16:44;;;;;;;;;94.25;79.75;;;;;-1.31;100.00;101421.97;3224207;37;4491582;-63
2022/02/11 05:19:13;;;;;;;;;87.25;67.00;;;;;-1.34;100.00;101428.31;3224745;37;3697816;-63
2022/02/11 05:21:40;;;;;;;;;81.00;63.00;;;;;-1.33;100.00;101427.38;3224860;38;3692619;-63
2022/02/11 05:24:08;;;;;;;;;84.25;64.25;;;;;-1.31;100.00;101427.28;3224785;37;3694689;-63
2022/02/11 05:26:36;;;;;;;;;84.25;64.50;;;;;-1.28;100.00;101440.37;3224979;37;4452395;-63
2022/02/11 05:29:09;;;;;;;;;90.50;72.00;;;;;-1.29;100.00;101437.81;3243495;38;4471759;-63
2022/02/11 05:31:39;;;;;;;;;85.00;73.00;;;;;-1.29;100.00;101444.00;3224654;37;4470719;-63
2022/02/11 05:34:07;;;;;;;;;89.50;64.25;;;;;-1.27;100.00;101442.09;3223492;38;4467614;-63
2022/02/11 05:36:42;;;;;;;;;95.50;76.25;;;;;-1.26;100.00;101454.44;3224052;37;4474874;-63
2022/02/11 05:39:10;;;;;;;;;99.00;82.25;;;;;-1.24;100.00;101451.69;3224651;38;4491562;-61
2022/02/11 05:41:41;;;;;;;;;128.71;111.86;;;;;-1.26;100.00;101446.47;3238101;37;2702387;-63
2022/02/11 05:44:09;;;;;;;;;109.00;94.50;;;;;-1.21;100.00;101455.03;3224588;38;4515502;-62
2022/02/11 05:46:38;;;;;;;;;103.00;88.50;;;;;-1.18;100.00;101448.69;3224364;37;4523828;-62
2022/02/11 05:49:09;;;;;;;;;102.25;87.75;;;;;-1.16;100.00;101454.78;3224466;37;4517584;-63
2022/02/11 05:51:36;;;;;;;;;96.00;83.50;;;;;-1.12;100.00;101466.94;3224669;38;3705343;-63
2022/02/11 05:54:09;;;;;;;;;101.00;83.25;;;;;-1.10;100.00;101459.75;3226072;38;4521737;-61
2022/02/11 05:56:37;;;;;;;;;110.25;100.25;;;;;-1.09;100.00;101467.63;3224500;37;4505337;-66
2022/02/11 05:59:11;;;;;;;;;132.25;108.75;;;;;-1.09;100.00;101467.63;3229166;37;3785345;-65
2022/02/11 06:01:38;;;;;;;;;123.00;103.00;;;;;-1.04;100.00;101460.22;3238039;38;3765469;-61
2022/02/11 06:04:08;;;;;;;;;119.75;110.00;;;;;-1.00;100.00;101464.41;3224385;37;4534360;-61
2022/02/11 06:06:44;;;;;;;;;109.67;97.67;;;;;-0.96;100.00;101465.09;3224537;38;3748826;-64
2022/02/11 06:09:11;;;;;;;;;127.67;106.33;;;;;-0.92;100.00;101469.31;3221775;37;3796738;-62
2022/02/11 06:11:41;;;;;;;;;118.25;111.00;;;;;-0.87;100.00;101467.25;3228467;38;3777315;-63
2022/02/11 06:14:11;;;;;;;;;136.50;122.75;;;;;-0.87;100.00;101475.22;3244590;37;3788380;-60
2022/02/11 06:16:40;;;;;;;;;134.33;107.00;;;;;-0.82;100.00;101478.47;3237169;38;3797771;-63
2022/02/11 06:19:07;;;;;;;;;126.00;106.67;;;;;-0.71;100.00;101485.81;3221005;38;3780310;-61
2022/02/11 06:21:37;;;;;;;;;119.00;104.33;;;;;-0.60;100.00;101482.53;3203542;37;3776332;-61
2022/02/11 06:24:05;;;;;;;;;118.75;99.25;;;;;-0.49;100.00;101482.75;3223853;38;4535313;-63
2022/02/11 06:26:33;;;;;;;;;116.75;104.50;;;;;-0.34;100.00;101488.00;3224124;37;4531304;-63
2022/02/11 06:29:02;;;;;;;;;106.00;91.50;;;;;-0.21;100.00;101485.47;3224600;37;4503344;-65
2022/02/11 06:31:32;;;;;;;;;94.25;85.00;;;;;-0.09;100.00;101497.19;3224735;37;4496697;-65
2022/02/11 06:34:00;;;;;;;;;93.75;82.50;;;;;0.05;100.00;101491.88;3224832;37;4502309;-62
2022/02/11 06:36:27;;;;;;;;;154.67;128.00;;;;;0.14;100.00;101488.66;3221817;38;3791487;-64
2022/02/11 06:38:57;;;;;;;;;122.67;109.00;;;;;0.25;100.00;101496.84;3228297;38;3768541;-64
2022/02/11 06:41:25;;;;;;;;;94.50;81.25;;;;;0.36;100.00;101490.00;3224017;37;4501304;-62
2022/02/11 06:43:54;;;;;;;;;76.50;60.75;;;;;0.51;100.00;101491.72;3225092;38;3681295;-63
2022/02/11 06:46:38;;;;;;;;;121.50;108.75;;;;;0.66;100.00;101490.72;3250735;37;4540443;-63
2022/02/11 06:49:14;;;;;;;;;104.33;92.33;;;;;0.79;100.00;101490.78;3239752;37;3751280;-60
2022/02/11 06:51:44;;;;;;;;;110.00;93.00;;;;;0.83;100.00;101486.97;3222860;37;3753275;-64
2022/02/11 06:54:12;;;;;;;;;88.50;79.25;;;;;0.90;100.00;101490.97;3225219;38;4484265;-62
2022/02/11 06:56:40;;;;;;;;;76.25;57.25;;;;;1.04;100.00;101492.75;3223789;37;3695611;-63
2022/02/11 06:59:09;;;;;;;;;85.75;66.25;;;;;1.14;100.00;101491.16;3224514;37;4474772;-65
2022/02/11 07:01:38;;;;;;;;;96.00;82.00;;;;;1.20;100.00;101491.63;3223375;37;4511272;-63
2022/02/11 07:04:12;;;;;;;;;106.50;94.50;;;;;1.30;100.00;101495.38;3224414;37;4508269;-66
2022/02/11 07:06:41;;;;;;;;;104.00;96.50;;;;;1.40;100.00;101497.44;3223776;37;4483277;-65
2022/02/11 07:09:10;;;;;;;;;85.33;74.67;;;;;1.53;100.00;101493.00;3228069;37;3734255;-66
2022/02/11 07:11:37;;;;;;;;;101.25;90.25;;;;;1.67;100.00;101506.25;3224355;37;4489334;-64
2022/02/11 07:14:05;;;;;;;;;101.75;90.75;;;;;1.78;100.00;101502.88;3224622;38;4478233;-65
2022/02/11 07:16:33;;;;;;;;;86.00;72.00;;;;;1.89;100.00;101506.50;3223333;38;4493492;-65
2022/02/11 07:19:00;;;;;;;;;88.25;74.75;;;;;2.04;100.00;101499.28;3225491;38;4504235;-66
2022/02/11 07:21:35;;;;;;;;;82.00;68.50;;;;;2.08;100.00;101492.72;3224039;37;4449771;-66
2022/02/11 07:24:03;;;;;;;;;74.00;57.50;;;;;2.12;100.00;101496.91;3224098;38;3692461;-66
2022/02/11 07:26:30;;;;;;;;;72.00;57.25;;;;;2.20;100.00;101491.88;3225235;37;3680235;-64
2022/02/11 07:28:58;;;;;;;;;72.00;56.00;;;;;2.28;100.00;101497.53;3225503;38;3681217;-64
2022/02/11 07:31:25;;;;;;;;;67.00;52.00;;;;;2.40;100.00;101490.50;3223700;37;3681212;-64
2022/02/11 07:33:52;;;;;;;;;67.50;55.00;;;;;2.52;100.00;101499.47;3224920;37;3681241;-65
2022/02/11 07:36:23;;;;;;;;;63.75;51.50;;;;;2.62;100.00;101504.00;3224923;38;3680219;-64
2022/02/11 07:39:00;;;;;;;;;60.75;50.25;;;;;2.66;100.00;101499.31;3223824;38;3674724;-64
2022/02/11 07:41:33;;;;;;;;;56.88;45.25;;;;;2.77;100.00;101494.03;3242913;38;3666409;-67
2022/02/11 07:44:07;;;;;;;;;58.50;48.25;;;;;2.93;100.00;101488.44;3243598;38;3666198;-65
2022/02/11 07:46:38;;;;;;;;;56.63;45.63;;;;;3.08;100.00;101484.66;3259720;37;3669496;-64
2022/02/11 07:49:08;;;;;;;;;64.50;49.75;;;;;3.23;100.00;101485.31;3240828;38;3690349;-64
2022/02/11 07:51:37;;;;;;;;;70.00;54.00;;;;;3.30;100.00;101484.75;3223602;38;3681218;-65
2022/02/11 07:54:06;;;;;;;;;63.75;49.25;;;;;3.46;100.00;101489.81;3223849;38;3673687;-67
2022/02/11 07:56:36;;;;;;;;;63.00;51.00;;;;;3.59;100.00;101485.25;3225337;38;3686188;-64
2022/02/11 07:59:07;;;;;;;;;58.38;47.88;;;;;3.65;100.00;101487.44;3246566;38;3666381;-66
2022/02/11 08:01:39;;;;;;;;;58.13;46.37;;;;;3.73;100.00;101484.19;3261835;38;3661178;-65
2022/02/11 08:04:10;;;;;;;;;58.00;46.25;;;;;3.85;100.00;101488.59;3261536;37;3662215;-64
2022/02/11 08:06:39;;;;;;;;;59.75;48.50;;;;;3.95;100.00;101481.56;3225536;37;3667396;-67
2022/02/11 08:09:11;;;;;;;;;58.87;47.75;;;;;4.08;100.00;101488.66;3244221;38;3655184;-66
2022/02/11 08:11:38;;;;;;;;;58.25;48.75;;;;;4.16;100.00;101488.94;3225984;38;3669516;-65
2022/02/11 08:14:06;;;;;;;;;62.25;49.50;;;;;4.30;100.00;101484.16;3224350;38;3682103;-65
2022/02/11 08:16:33;;;;;;;;;64.00;51.50;;;;;4.42;100.00;101487.72;3224457;38;3672608;-67
2022/02/11 08:19:01;;;;;;;;;61.75;50.00;;;;;4.50;100.00;101484.44;3224828;38;3674695;-66
2022/02/11 08:21:28;;;;;;;;;57.00;47.00;;;;;4.61;100.00;101484.44;3224983;37;3676146;-67
2022/02/11 08:23:57;;;;;;;;;65.75;51.50;;;;;4.76;100.00;101485.00;3224418;37;3692375;-65
2022/02/11 08:26:24;;;;;;;;;65.25;51.25;;;;;4.88;100.00;101474.13;3225728;38;3673631;-65
2022/02/11 08:28:53;;;;;;;;;67.25;54.75;;;;;4.98;100.00;101491.19;3224518;38;3681157;-66
2022/02/11 08:31:21;;;;;;;;;60.75;49.00;;;;;5.07;100.00;101481.53;3224372;37;3673621;-65
2022/02/11 08:33:51;;;;;;;;;63.00;50.50;;;;;5.12;100.00;101482.03;3224159;37;3686165;-65
2022/02/11 08:36:22;;;;;;;;;57.50;48.00;;;;;5.23;100.00;101487.34;3222161;37;3671527;-66
2022/02/11 08:38:50;;;;;;;;;57.00;45.25;;;;;5.32;100.00;101483.03;3225090;38;3671534;-65
2022/02/11 08:41:18;;;;;;;;;61.25;49.75;;;;;5.44;100.00;101478.50;3224743;37;3677137;-67
2022/02/11 08:43:49;;;;;;;;;62.75;50.75;;;;;5.55;100.00;101484.66;3224870;37;3679116;-65
2022/02/11 08:46:21;;;;;;;;;64.00;51.25;;;;;5.70;100.00;101482.53;3224304;37;3684117;-66
2022/02/11 08:48:55;;;;;;;;;50.25;40.25;;;;;5.86;100.00;101474.00;3223602;38;3661112;-65
2022/02/11 08:51:27;;;;;;;;;62.75;49.75;;;;;5.97;100.00;101479.34;3225143;38;3684018;-67
2022/02/11 08:53:59;;;;;;;;;62.00;50.25;;;;;6.10;100.00;101484.53;3225044;38;3671510;-65
2022/02/11 08:56:33;;;;;;;;;59.50;48.25;;;;;6.24;100.00;101482.31;3224248;38;3678105;-68
2022/02/11 08:59:03;;;;;;;;;66.25;51.75;;;;;6.36;100.00;101483.09;3224363;38;3676104;-65
2022/02/11 09:01:31;;;;;;;;;63.50;51.25;;;;;6.44;100.00;101472.53;3224686;37;3679824;-66
2022/02/11 09:03:58;;;;;;;;;58.75;48.50;;;;;6.54;100.00;101470.72;3224553;37;3672546;-67
2022/02/11 09:06:26;;;;;;;;;60.25;47.75;;;;;6.66;100.00;101476.03;3224761;37;3680099;-67
2022/02/11 09:08:54;;;;;;;;;59.00;48.00;;;;;6.76;100.00;101480.41;3224858;37;3669395;-65
2022/02/11 09:11:21;;;;;;;;;60.50;48.50;;;;;6.85;100.00;101473.38;3225406;37;3673575;-66
2022/02/11 09:13:51;;;;;;;;;56.25;46.50;;;;;6.95;100.00;101472.41;3225226;38;3682111;-67
2022/02/11 09:16:20;;;;;;;;;58.50;48.50;;;;;7.09;100.00;101473.87;3224702;38;3681058;-67
2022/02/11 09:18:47;;;;;;;;;57.50;48.00;;;;;7.21;100.00;101471.91;3225424;37;3686058;-66
2022/02/11 09:21:15;;;;;;;;;60.00;47.50;;;;;7.34;100.00;101468.91;3227108;37;3692282;-63
2022/02/11 09:23:50;;;;;;;;;56.25;46.37;;;;;7.41;100.00;101468.22;3248802;38;3665201;-65
2022/02/11 09:26:18;;;;;;;;;57.25;44.75;;;;;7.52;100.00;101462.69;3226909;38;3668353;-66
2022/02/11 09:28:47;;;;;;;;;57.50;47.00;;;;;7.61;100.00;101461.84;3225517;37;3670423;-66
2022/02/11 09:31:15;;;;;;;;;52.25;44.50;;;;;7.70;100.00;101464.69;3225829;38;3676084;-66
2022/02/11 09:33:48;;;;;;;;;52.50;44.00;;;;;7.75;100.00;101467.78;3225360;38;3674589;-65
2022/02/11 09:36:23;;;;;;;;;57.00;46.13;;;;;7.82;100.00;101466.19;3245170;38;3652057;-66
2022/02/11 09:38:52;;;;;;;;;59.00;47.25;;;;;7.93;100.00;101466.91;3226405;38;3679095;-66
2022/02/11 09:41:20;;;;;;;;;54.25;44.75;;;;;8.02;100.00;101464.34;3225320;38;3661058;-64
2022/02/11 09:43:49;;;;;;;;;58.00;47.50;;;;;8.11;100.00;101448.13;3225273;38;3680060;-64
2022/02/11 09:46:18;;;;;;;;;60.00;49.25;;;;;8.26;100.00;101449.38;3225141;38;3678029;-65
2022/02/11 09:48:46;;;;;;;;;104.00;92.00;;;;;8.38;100.00;101446.50;3221949;37;3754039;-64
2022/02/11 09:51:14;;;;;;;;;311.50;278.25;;;;;8.49;100.00;101443.63;3222645;38;4569321;-65
2022/02/11 09:53:43;;;;;;;;;80.00;73.75;;;;;8.61;100.00;101445.12;3224149;37;4453044;-63
2022/02/11 09:56:11;;;;;;;;;64.25;52.00;;;;;8.70;100.00;101429.91;3224393;38;3683034;-62
2022/02/11 09:58:39;;;;;;;;;61.75;48.75;;;;;8.80;100.00;101436.94;3224786;38;3669340;-65
2022/02/11 10:01:07;;;;;;;;;61.50;49.25;;;;;8.88;100.00;101433.47;3225042;37;3677029;-63
2022/02/11 10:03:36;;;;;;;;;68.75;56.25;;;;;8.96;100.00;101429.00;3224704;37;3683029;-64
2022/02/11 10:06:06;;;;;;;;;67.50;53.25;;;;;9.02;100.00;101426.72;3224981;38;3688070;-64
2022/02/11 10:08:40;;;;;;;;;58.75;47.75;;;;;9.09;100.00;101423.25;3245735;37;3669300;-64
2022/02/11 10:11:10;;;;;;;;;59.00;48.50;;;;;9.18;100.00;101419.63;3225362;37;3682031;-64
2022/02/11 10:13:40;;;;;;;;;63.00;50.25;;;;;9.30;100.00;101417.56;3224582;38;3668284;-64
2022/02/11 10:16:12;;;;;;;;;64.00;51.00;;;;;9.39;100.00;101413.06;3224904;38;3674529;-65
2022/02/11 10:18:48;;;;;;;;;60.75;48.75;;;;;9.50;100.00;101416.37;3224456;37;4433000;-64
2022/02/11 10:21:23;;;;;;;;;61.00;49.50;;;;;9.68;100.00;101421.75;3225991;38;3678017;-63
2022/02/11 10:23:53;;;;;;;;;63.75;51.50;;;;;9.81;100.00;101415.94;3224901;38;3679981;-64
2022/02/11 10:26:27;;;;;;;;;57.88;46.63;;;;;9.94;100.00;101414.50;3244643;37;3669273;-66
2022/02/11 10:28:56;;;;;;;;;52.25;43.50;;;;;9.91;100.00;101404.00;3242971;37;3666160;-67
2022/02/11 10:31:35;;;;;;;;;56.50;45.25;;;;;10.01;100.00;101401.19;3226055;37;3672421;-67
2022/02/11 10:34:18;;;;;;;;;50.38;42.75;;;;;9.96;100.00;101390.84;3245566;38;3659995;-65
2022/02/11 10:36:50;;;;;;;;;47.75;40.38;;;;;10.32;100.00;101389.91;3246504;38;3660984;-64
2022/02/11 10:39:26;;;;;;;;;53.87;44.75;;;;;10.58;100.00;101387.97;3262144;38;3665096;-65
2022/02/11 10:41:57;;;;;;;;;31.67;30.33;;;;;10.71;100.00;101388.38;3232077;37;3664085;-66
2022/02/11 10:44:32;;;;;;;;;37.75;35.75;;;;;10.70;100.00;101369.59;3225455;38;3683973;-65
2022/02/11 10:47:04;;;;;;;;;41.00;35.67;;;;;10.70;100.00;101375.00;3232204;38;3669255;-64
2022/02/11 10:49:41;;;;;;;;;27.00;26.67;;;;;10.73;100.00;101371.97;3231570;37;3653967;-65
2022/02/11 10:52:33;;;;;;;;;37.29;33.71;;;;;10.91;100.00;101367.28;3244410;38;2916132;-64
2022/02/11 10:55:00;;;;;;;;;39.75;36.00;;;;;11.17;100.00;101362.56;3226336;37;3682962;-63
2022/02/11 10:57:34;;;;;;;;;33.00;30.33;;;;;11.25;100.00;101359.00;3232553;38;3654933;-64
2022/02/11 11:00:09;;;;;;;;;36.57;33.57;;;;;11.42;100.00;101349.88;3243901;38;2909938;-66
2022/02/11 11:02:45;;;;;;;;;29.00;26.33;;;;;11.42;100.00;101349.03;3232168;37;3645301;-64
2022/02/11 11:05:16;;;;;;;;;23.14;22.29;;;;;11.45;100.00;101344.06;3244458;37;2900949;-63
2022/02/11 11:07:48;;;;;;;;;18.25;18.12;;;;;11.41;100.00;101342.75;3248009;38;3638010;-65
2022/02/11 11:10:20;;;;;;;;;23.25;22.25;;;;;11.34;97.18;101349.88;3247174;37;3648418;-64
2022/02/11 11:12:56;;;;;;;;;20.00;20.00;;;;;11.48;100.00;101341.03;3248756;38;3650918;-64
2022/02/11 11:15:36;;;;;;;;;18.50;18.50;;;;;11.48;96.76;101337.47;3232544;37;2884948;-65
2022/02/11 11:18:10;;;;;;;;;20.88;20.50;;;;;11.67;96.93;101339.00;3249346;38;3639030;-65
2022/02/11 11:20:45;;;;;;;;;14.87;14.87;;;;;11.69;96.77;101337.78;3249946;37;3580909;-65
2022/02/11 11:23:26;;;;;;;;;24.25;22.00;;;;;11.68;94.30;101338.81;3247701;38;3650907;-64
2022/02/11 11:26:06;;;;;;;;;19.87;18.62;;;;;11.79;95.31;101330.34;3247943;37;3640059;-64
2022/02/11 11:28:48;;;;;;;;;18.62;17.37;;;;;11.95;89.40;101331.34;3249549;38;3619235;-63
2022/02/11 11:31:26;;;;;;;;;20.37;20.37;;;;;11.91;85.44;101331.69;3248374;38;3641089;-65
2022/02/11 11:34:44;;;;;;;;;20.75;19.37;;;;;11.78;88.24;101319.69;3247923;37;3631902;-65
2022/02/11 11:37:16;;;;;;;;;19.25;18.12;;;;;11.95;89.48;101318.63;3248299;37;3631912;-64
2022/02/11 11:39:54;;;;;;;;;21.37;18.50;;;;;12.21;86.35;101307.50;3249281;37;3636904;-66
2022/02/11 11:42:26;;;;;;;;;21.12;19.75;;;;;12.44;85.31;101315.72;3248604;38;3645244;-67
2022/02/11 11:44:57;;;;;;;;;21.50;19.50;;;;;12.31;85.79;101313.56;3247384;38;3644200;-66
2022/02/11 11:47:37;;;;;;;;;18.75;17.87;;;;;12.51;85.75;101305.81;3248731;38;3624391;-65
2022/02/11 11:50:08;;;;;;;;;15.50;15.50;;;;;12.55;82.90;101302.56;3233840;37;2873375;-64
2022/02/11 11:52:51;;;;;;;;;18.62;18.25;;;;;12.35;83.26;101300.47;3247855;37;3632865;-66
2022/02/11 11:55:24;;;;;;;;;19.87;19.25;;;;;12.41;82.65;101297.06;3251189;38;3645870;-67
2022/02/11 11:57:55;;;;;;;;;16.87;16.00;;;;;12.40;82.40;101296.22;3251087;37;3606867;-66
2022/02/11 12:00:39;;;;;;;;;16.25;16.25;;;;;12.33;82.03;101299.81;3251051;38;3621263;-63
2022/02/11 12:03:12;;;;;;;;;15.00;14.50;;;;;12.32;83.65;101292.69;3231552;38;2857860;-66
2022/02/11 12:05:53;;;;;;;;;22.25;20.12;;;;;12.57;83.28;101297.78;3249442;38;3637921;-66
2022/02/11 12:08:28;;;;;;;;;26.00;24.75;;;;;12.77;81.82;101294.63;3248459;38;3650874;-67
2022/02/11 12:11:02;;;;;;;;;21.25;21.00;;;;;12.66;81.25;101289.59;3248847;37;3638954;-64
2022/02/11 12:13:34;;;;;;;;;27.00;25.67;;;;;12.61;81.33;101290.13;3235567;38;3645182;-65
2022/02/11 12:16:08;;;;;;;;;25.50;25.00;;;;;12.61;80.10;101295.56;3246306;38;3645189;-66
2022/02/11 12:18:42;;;;;;;;;26.75;26.12;;;;;12.62;81.44;101294.53;3247828;37;3655836;-66
2022/02/11 12:21:14;;;;;;;;;19.87;19.87;;;;;12.51;80.41;101303.09;3247439;37;3648302;-65
2022/02/11 12:29:33;;;;;;;;;23.00;22.00;;;;;12.94;79.54;101296.22;3248863;37;3647245;-65
2022/02/11 12:32:05;;;;;;;;;24.63;23.50;;;;;12.82;79.63;101292.22;3247631;37;3641004;-62
2022/02/11 12:34:36;;;;;;;;;17.75;17.12;;;;;12.82;79.43;101298.50;3248782;37;3610823;-63
2022/02/11 12:37:10;;;;;;;;;37.33;32.33;;;;;12.73;80.37;101301.44;3227652;38;2912878;-62
2022/02/11 12:39:43;;;;;;;;;18.00;17.57;;;;;12.73;79.25;101285.16;3246520;37;2885822;-64
2022/02/11 12:42:18;;;;;;;;;56.20;48.60;;;;;13.04;78.20;101293.22;3226914;37;3670148;-62
2022/02/11 12:44:51;;;;;;;;;29.33;28.33;;;;;13.28;77.98;101290.34;3227799;37;2928817;-64
2022/02/11 12:47:26;;;;;;;;;24.75;23.75;;;;;13.41;78.69;101287.84;3230611;38;3652793;-64
2022/02/11 12:49:59;;;;;;;;;20.88;20.50;;;;;13.43;75.27;101287.66;3247833;37;3639933;-65
2022/02/11 12:52:36;;;;;;;;;22.13;22.13;;;;;13.41;73.93;101285.13;3248366;37;3644102;-64
2022/02/11 12:55:19;;;;;;;;;22.50;20.00;;;;;13.46;73.72;101279.97;3247525;38;3650803;-63
2022/02/11 12:57:58;;;;;;;;;27.43;26.29;;;;;13.31;78.60;101297.28;3246371;38;2904803;-65
2022/02/11 13:00:30;;;;;;;;;32.00;30.00;;;;;12.86;90.83;101282.69;3232699;38;3678807;-63
2022/02/11 13:03:03;;;;;;;;;28.86;28.00;;;;;13.00;91.79;101291.94;3245649;37;2907803;-65
2022/02/11 13:05:42;;;;;;;;;52.75;43.50;;;;;13.27;90.57;101295.97;3226654;38;3680776;-63
2022/02/11 13:08:24;;;;;;;;;55.00;45.00;;;;;13.34;91.77;101294.19;3232283;38;3671185;-63
2022/02/11 13:10:59;;;;;;;;;43.25;35.13;;;;;13.28;91.07;101295.78;3254616;38;3647213;-64
2022/02/11 13:13:30;;;;;;;;;42.00;37.33;;;;;13.30;92.43;101293.72;3233919;37;3667002;-63
2022/02/11 13:16:01;;;;;;;;;35.00;33.00;;;;;13.23;87.73;101295.47;3232860;38;3643049;-64
2022/02/11 13:18:32;;;;;;;;;35.25;33.75;;;;;12.77;89.01;101292.75;3227035;38;3658756;-64
2022/02/11 13:21:06;;;;;;;;;22.71;22.29;;;;;12.65;89.02;101298.78;3246639;37;2907760;-64
2022/02/11 13:23:36;;;;;;;;;35.00;33.33;;;;;12.51;88.94;101303.94;3250624;38;3675769;-66
2022/02/11 13:26:12;;;;;;;;;32.13;30.75;;;;;12.45;88.86;101298.41;3249272;38;3660765;-65
2022/02/11 13:28:50;;;;;;;;;34.33;29.67;;;;;12.47;89.56;101302.63;3226527;38;2913834;-66
2022/02/11 13:31:18;;;;;;;;;35.33;32.33;;;;;12.49;90.23;101302.41;3226679;38;2929745;-64
2022/02/11 13:34:05;;;;;;;;;35.33;31.67;;;;;12.50;89.93;101301.41;3232421;38;3673225;-64
2022/02/11 13:36:33;;;;;;;;;39.67;33.33;;;;;12.38;90.57;101308.28;3226029;37;2913821;-65
2022/02/11 13:39:02;;;;;;;;;36.67;33.00;;;;;12.26;91.75;101300.50;3226060;37;2937799;-64
2022/02/11 13:41:38;;;;;;;;;36.00;30.67;;;;;12.22;91.06;101304.59;3226011;38;2916968;-66
2022/02/11 13:44:13;;;;;;;;;32.25;28.75;;;;;12.21;91.67;101308.34;3228154;37;3661751;-63
2022/02/11 13:46:51;;;;;;;;;33.67;32.00;;;;;12.19;91.57;101304.09;3232673;37;3647144;-64
2022/02/11 13:49:25;;;;;;;;;24.50;22.62;;;;;12.22;91.23;101307.31;3246799;38;3646127;-63
2022/02/11 13:54:59;;;;;;;;;37.14;32.14;;;;;12.12;89.85;101309.38;3245631;37;2909699;-64
2022/02/11 13:57:28;;;;;;;;;34.00;31.33;;;;;12.14;90.92;101299.22;3233043;38;3657701;-64
2022/02/11 13:59:56;;;;;;;;;34.00;31.00;;;;;12.18;88.67;101316.84;3231797;37;3650725;-64
2022/02/11 14:02:30;;;;;;;;;29.57;29.00;;;;;12.14;89.83;101315.50;3245340;38;2902690;-63
2022/02/11 14:05:07;;;;;;;;;28.67;27.00;;;;;12.00;90.12;101304.50;3233591;37;3656688;-64
2022/02/11 14:07:35;;;;;;;;;34.67;32.33;;;;;12.01;89.01;101312.47;3232569;38;3674219;-62
2022/02/11 14:10:23;;;;;;;;;35.75;32.00;;;;;12.09;90.00;101315.16;3228201;38;3665876;-66
2022/02/11 14:13:08;;;;;;;;;34.33;32.67;;;;;12.09;90.46;101319.75;3233413;37;3658675;-66
2022/02/11 14:15:37;;;;;;;;;30.33;29.33;;;;;11.89;88.97;101327.47;3232209;38;3656674;-69
2022/02/11 14:18:07;;;;;;;;;33.00;31.33;;;;;11.77;90.48;101331.56;3232607;37;3655683;-66
2022/02/11 14:20:39;;;;;;;;;38.00;34.33;;;;;11.68;90.72;101327.12;3225658;37;2926693;-66
2022/02/11 14:23:14;;;;;;;;;33.71;32.71;;;;;11.66;90.86;101334.59;3246823;38;2907675;-66
2022/02/11 14:25:43;;;;;;;;;33.33;31.00;;;;;11.63;89.71;101333.06;3226944;38;2928754;-68
2022/02/11 14:28:13;;;;;;;;;34.00;31.67;;;;;11.52;91.23;101330.69;3233407;38;3655671;-67
2022/02/11 14:30:42;;;;;;;;;26.00;25.33;;;;;11.49;90.72;101336.47;3226406;38;2914813;-68
2022/02/11 14:33:12;;;;;;;;;31.00;30.33;;;;;11.46;92.00;101339.50;3226904;37;2925663;-67
2022/02/11 14:35:41;;;;;;;;;25.50;24.50;;;;;11.44;91.82;101336.97;3228596;37;3656670;-67
2022/02/11 14:38:12;;;;;;;;;23.38;22.75;;;;;11.46;91.77;101340.34;3248152;38;3640870;-66
2022/02/11 14:41:45;;;;;;;;;29.67;29.00;;;;;11.40;92.60;101338.34;3227941;38;2908645;-66